Time;durP1;ratioP1;P1;durP2;ratioP2;P2;SDS_P1;SDS_P2;PMS_P1;PMS_P2;Temp;Humidity;BMP_temperature;BMP_pressure;BME280_temperature;BME280_humidity;BME280_pressure;Samples;Min_cycle;Max_cycle;Signal;HPM_P1;HPM_P2
2022/07/12 00:00:46;;;;;;;2.63;1.23;;;;;;;14.14;83.84;100939.53;3591629;80;99268;-89
2022/07/12 00:05:47;;;;;;;3.80;1.37;;;;;;;14.11;84.46;100942.29;3624666;80;31960;-88
2022/07/12 00:10:48;;;;;;;1.73;0.80;;;;;;;14.05;84.36;100943.23;3569093;79;99025;-88
2022/07/12 00:15:49;;;;;;;3.33;1.30;;;;;;;14.03;84.79;100938.69;3573471;81;99261;-89
2022/07/12 00:20:50;;;;;;;2.27;1.30;;;;;;;14.00;84.88;100933.14;3571054;80;99270;-89
2022/07/12 00:25:51;;;;;;;5.47;1.32;;;;;;;13.95;84.95;100937.05;3594162;79;98846;-89
2022/07/12 00:30:52;;;;;;;4.33;1.50;;;;;;;13.94;85.14;100941.58;3612558;80;98666;-89
2022/07/12 00:35:53;;;;;;;2.57;1.27;;;;;;;13.85;84.89;100940.55;3593069;81;26806;-88
2022/07/12 00:40:54;;;;;;;4.65;1.50;;;;;;;13.81;85.39;100938.94;3581786;81;98659;-89
2022/07/12 00:45:55;;;;;;;3.70;1.50;;;;;;;13.80;85.46;100940.91;3591248;81;99286;-89
2022/07/12 00:50:56;;;;;;;4.10;1.37;;;;;;;13.79;85.71;100935.78;3557850;81;98775;-89
2022/07/12 00:55:58;;;;;;;5.00;1.57;;;;;;;13.77;85.80;100937.55;3612822;81;99233;-89
2022/07/12 01:00:59;;;;;;;3.63;1.47;;;;;;;13.76;85.76;100942.88;3599951;80;99256;-88
2022/07/12 01:06:01;;;;;;;2.43;1.43;;;;;;;13.72;85.76;100938.48;3635546;81;34420;-88
2022/07/12 01:11:03;;;;;;;3.67;1.50;;;;;;;13.67;85.54;100937.46;3651159;80;98511;-88
2022/07/12 01:16:06;;;;;;;6.17;2.10;;;;;;;13.62;86.02;100931.70;3653532;81;99085;-88
2022/07/12 01:21:08;;;;;;;3.83;1.52;;;;;;;13.66;86.29;100930.34;3588296;80;99297;-88
2022/07/12 01:26:09;;;;;;;2.67;1.42;;;;;;;13.69;86.17;100928.20;3589993;81;97974;-88
2022/07/12 01:31:10;;;;;;;5.50;1.63;;;;;;;13.67;86.33;100925.81;3591674;81;98825;-89
2022/07/12 01:36:12;;;;;;;4.53;1.60;;;;;;;13.69;86.62;100923.45;3592267;80;26515;-88
2022/07/12 01:41:13;;;;;;;5.03;1.40;;;;;;;13.72;86.80;100922.69;3594319;81;98883;-88
2022/07/12 01:46:14;;;;;;;2.77;1.50;;;;;;;13.75;86.54;100917.78;3600733;79;98715;-87
2022/07/12 01:51:15;;;;;;;4.20;1.50;;;;;;;13.75;86.60;100920.55;3598784;80;99240;-88
2022/07/12 01:56:17;;;;;;;4.70;1.50;;;;;;;13.76;86.69;100909.68;3604599;80;99165;-88
2022/07/12 02:01:19;;;;;;;4.90;1.87;;;;;;;13.77;86.45;100913.22;3597372;80;98133;-89
2022/07/12 02:06:20;;;;;;;2.23;1.33;;;;;;;13.76;86.74;100917.98;3583952;81;108606;-87
2022/07/12 02:11:21;;;;;;;2.60;1.30;;;;;;;13.76;86.99;100914.41;3601752;80;98777;-89
2022/07/12 02:16:22;;;;;;;4.60;1.40;;;;;;;13.76;86.78;100910.26;3600467;80;98850;-88
2022/07/12 02:21:23;;;;;;;3.93;1.53;;;;;;;13.73;86.96;100915.97;3655378;80;98842;-88
2022/07/12 02:26:24;;;;;;;2.37;1.20;;;;;;;13.77;87.35;100911.27;3633499;80;99175;-89
2022/07/12 02:31:25;;;;;;;5.20;1.70;;;;;;;13.81;87.63;100912.08;3633481;81;99261;-89
2022/07/12 02:36:28;;;;;;;5.27;2.00;;;;;;;13.83;87.38;100919.97;3653765;80;98955;-90
2022/07/12 02:41:29;;;;;;;4.33;1.90;;;;;;;13.88;87.71;100923.77;3651656;80;97839;-90
2022/07/12 02:46:30;;;;;;;7.07;1.80;;;;;;;13.92;87.53;100921.81;3639965;80;108191;-90
2022/07/12 02:51:31;;;;;;;3.20;1.50;;;;;;;13.93;87.51;100925.58;3592434;82;98969;-90
2022/07/12 02:56:32;;;;;;;4.20;2.03;;;;;;;13.98;87.66;100925.80;3591875;82;98880;-88
2022/07/12 03:01:33;;;;;;;5.00;2.00;;;;;;;13.98;87.58;100918.87;3537025;82;98458;-89
2022/07/12 03:06:34;;;;;;;7.70;2.70;;;;;;;13.86;88.01;100901.23;3580543;81;98873;-89
2022/07/12 03:11:35;;;;;;;4.00;1.70;;;;;;;14.02;88.09;100926.00;3502698;83;97864;-89
2022/07/12 03:16:36;;;;;;;4.53;1.90;;;;;;;14.05;88.18;100924.44;3521622;82;98940;-89
2022/07/12 03:21:37;;;;;;;4.20;1.80;;;;;;;14.09;88.37;100928.02;3522135;83;98823;-90
2022/07/12 03:26:38;;;;;;;4.00;1.43;;;;;;;14.11;88.52;100931.22;3511565;83;98897;-89
2022/07/12 03:31:39;;;;;;;7.30;1.82;;;;;;;14.13;88.32;100936.56;3518696;83;98780;-90
2022/07/12 03:36:40;;;;;;;4.20;1.92;;;;;;;14.19;88.33;100936.97;3502707;83;98936;-89
2022/07/12 03:41:41;;;;;;;9.78;1.80;;;;;;;14.22;88.45;100942.55;3511903;82;97811;-89
2022/07/12 03:46:42;;;;;;;4.87;1.40;;;;;;;14.26;88.45;100943.38;3437831;83;99050;-90
2022/07/12 03:51:43;;;;;;;5.37;1.57;;;;;;;14.33;88.71;100949.54;3487478;83;99259;-91
2022/07/12 04:02:04;;;;;;;5.60;2.37;;;;;;;14.41;88.61;100942.83;3527882;82;99312;-90
2022/07/12 04:07:05;;;;;;;5.30;1.62;;;;;;;14.45;88.66;100941.65;3555473;82;99002;-90
2022/07/12 04:12:07;;;;;;;6.55;1.92;;;;;;;14.52;88.74;100935.35;3536370;82;34848;-89
2022/07/12 04:17:08;;;;;;;9.20;2.35;;;;;;;14.57;88.62;100935.78;3565172;82;98880;-89
2022/07/12 04:22:09;;;;;;;4.62;2.00;;;;;;;14.63;88.81;100932.02;3557971;82;97893;-90
2022/07/12 04:27:10;;;;;;;8.93;2.30;;;;;;;14.70;88.76;100934.80;3518477;82;98830;-90
2022/07/12 04:32:12;;;;;;;3.85;2.08;;;;;;;14.75;88.79;100935.80;3526530;82;99218;-90
2022/07/12 04:37:13;;;;;;;5.47;2.13;;;;;;;14.80;88.85;100925.14;3523971;82;98985;-91
2022/07/12 04:42:13;;;;;;;6.22;2.33;;;;;;;14.89;88.66;100928.30;3491342;82;32051;-89
2022/07/12 04:47:15;;;;;;;6.50;2.10;;;;;;;14.96;88.62;100920.02;3525987;82;98879;-89
2022/07/12 04:52:16;;;;;;;8.40;2.20;;;;;;;15.08;88.87;100921.59;3545415;81;98760;-88
2022/07/12 04:57:17;;;;;;;6.47;2.50;;;;;;;15.18;88.61;100920.23;3554009;81;98487;-89
2022/07/12 05:02:18;;;;;;;6.65;2.20;;;;;;;15.31;88.65;100921.41;3537529;82;98011;-89
2022/07/12 05:07:19;;;;;;;6.12;2.17;;;;;;;15.45;88.59;100918.67;3522980;82;98492;-90
2022/07/12 05:12:20;;;;;;;9.38;2.58;;;;;;;15.63;88.67;100917.23;3539214;82;28157;-89
2022/07/12 05:17:21;;;;;;;6.50;2.00;;;;;;;15.82;88.61;100922.37;3528726;82;99177;-90
2022/07/12 05:22:23;;;;;;;5.28;1.77;;;;;;;15.99;88.48;100919.55;3633128;80;99182;-89
2022/07/12 05:27:24;;;;;;;8.03;2.15;;;;;;;16.23;88.53;100911.72;3631515;80;98875;-90
2022/07/12 05:32:25;;;;;;;5.60;2.25;;;;;;;16.64;88.89;100917.50;3600971;80;98803;-90
2022/07/12 05:37:26;;;;;;;9.73;2.42;;;;;;;17.20;88.82;100924.05;3587802;81;98819;-90
2022/07/12 05:42:27;;;;;;;6.75;1.70;;;;;;;17.93;88.34;100920.59;3657015;79;32261;-91
2022/07/12 05:47:28;;;;;;;4.83;1.80;;;;;;;18.70;87.14;100918.87;3624954;80;98743;-91
2022/07/12 05:57:38;;;;;;;8.43;2.10;;;;;;;20.39;83.52;100917.52;3567566;80;98767;-92
2022/07/12 06:02:39;;;;;;;6.42;1.80;;;;;;;21.30;81.47;100919.63;3557521;79;99275;-90
2022/07/12 06:07:40;;;;;;;3.65;1.32;;;;;;;22.11;78.67;100917.66;3598167;80;98963;-90
2022/07/12 06:12:41;;;;;;;5.20;1.65;;;;;;;22.80;76.58;100924.45;3567450;81;32634;-89
2022/07/12 06:17:42;;;;;;;4.62;1.60;;;;;;;23.46;75.09;100920.91;3577077;81;98697;-89
2022/07/12 06:22:43;;;;;;;5.70;1.92;;;;;;;24.09;72.57;100922.13;3529834;82;99037;-89
2022/07/12 06:27:47;;;;;;;4.35;1.60;;;;;;;24.72;70.36;100915.52;3500153;81;98919;-89
2022/07/12 06:32:48;;;;;;;7.20;1.85;;;;;;;25.19;68.04;100914.63;3532554;82;99252;-90
2022/07/12 06:37:49;;;;;;;5.85;1.57;;;;;;;25.55;66.93;100918.34;3526915;82;98803;-87
2022/07/12 06:42:50;;;;;;;2.77;1.20;;;;;;;25.90;65.20;100920.25;3537015;82;98854;-89
2022/07/12 06:47:53;;;;;;;4.53;1.20;;;;;;;26.29;63.60;100916.49;3561907;82;98484;-86
2022/07/12 06:52:54;;;;;;;4.37;1.20;;;;;;;26.46;62.65;100912.06;3572359;82;98308;-86
2022/07/12 06:57:54;;;;;;;4.30;1.50;;;;;;;26.72;61.78;100905.61;3571272;82;99286;-87
2022/07/12 07:02:55;;;;;;;4.28;1.30;;;;;;;27.09;60.66;100907.00;3574793;82;98782;-87
2022/07/12 07:07:56;;;;;;;5.58;1.30;;;;;;;27.47;59.30;100907.13;3567874;82;99165;-87
2022/07/12 07:12:57;;;;;;;3.30;1.47;;;;;;;27.83;57.92;100899.83;3568432;82;99521;-85
2022/07/12 07:17:58;;;;;;;3.92;1.12;;;;;;;28.19;56.34;100894.48;3551154;82;99021;-86
2022/07/12 07:22:59;;;;;;;4.25;1.20;;;;;;;28.47;55.68;100899.41;3577303;82;99211;-86
2022/07/12 07:28:00;;;;;;;3.92;1.30;;;;;;;28.70;54.52;100903.39;3539659;82;99270;-86
2022/07/12 07:33:01;;;;;;;1.90;1.02;;;;;;;28.82;53.61;100908.75;3529777;82;98489;-86
2022/07/12 07:38:02;;;;;;;7.95;1.37;;;;;;;28.97;52.54;100907.34;3540730;82;99260;-86
2022/07/12 07:43:03;;;;;;;7.92;1.32;;;;;;;29.05;51.70;100913.52;3530319;82;98899;-87
2022/07/12 07:48:04;;;;;;;2.85;1.10;;;;;;;29.19;51.19;100908.47;3523065;81;98637;-86
2022/07/12 07:53:05;;;;;;;6.33;1.47;;;;;;;29.31;50.39;100898.08;3536491;82;97901;-86
2022/07/12 07:58:06;;;;;;;3.70;1.35;;;;;;;29.30;49.79;100892.23;3530884;82;98943;-86
2022/07/12 08:03:08;;;;;;;4.15;1.20;;;;;;;29.28;49.61;100899.84;3469472;83;99183;-87
2022/07/12 08:08:09;;;;;;;2.65;1.12;;;;;;;29.19;48.82;100898.55;3534730;82;98443;-87
2022/07/12 08:13:11;;;;;;;2.47;1.00;;;;;;;29.30;49.29;100897.91;3531613;82;98936;-87
2022/07/12 08:18:13;;;;;;;3.50;1.00;;;;;;;29.40;48.93;100897.92;3526079;82;98464;-88
2022/07/12 08:23:14;;;;;;;1.95;0.80;;;;;;;29.62;48.35;100903.30;3575754;81;98637;-87
2022/07/12 08:28:16;;;;;;;2.37;0.88;;;;;;;30.23;48.43;100901.21;3599007;80;99008;-86
2022/07/12 08:33:17;;;;;;;2.80;0.80;;;;;;;30.86;47.08;100914.20;3629156;80;98856;-87
2022/07/12 08:38:18;;;;;;;2.80;0.98;;;;;;;30.97;46.05;100908.60;3521179;83;98534;-86
2022/07/12 08:43:20;;;;;;;2.72;0.95;;;;;;;31.49;45.29;100907.92;3538853;83;98921;-84
2022/07/12 08:48:21;;;;;;;2.42;0.70;;;;;;;31.77;43.66;100902.41;3552408;81;98901;-87
2022/07/12 08:53:22;;;;;;;1.50;0.70;;;;;;;32.17;43.52;100900.58;3526930;81;98802;-86
2022/07/12 08:58:23;;;;;;;2.62;1.10;;;;;;;33.06;41.39;100887.31;3528130;82;99066;-86
2022/07/12 09:03:24;;;;;;;2.95;0.90;;;;;;;33.06;41.39;100887.31;3541979;81;98838;-87
2022/07/12 09:08:34;;;;;;;3.27;0.82;;;;;;;33.56;40.99;100897.22;3554367;81;98988;-88
2022/07/12 09:13:52;;;;;;;2.02;0.80;;;;;;;34.05;39.50;100902.70;3564219;81;98912;-87
2022/07/12 09:19:17;;;;;;;3.17;1.05;;;;;;;34.02;39.01;100902.99;3510362;83;99123;-90
2022/07/12 09:24:21;;;;;;;1.87;0.85;;;;;;;34.35;38.86;100897.09;3567116;82;25857;-87
2022/07/12 09:29:22;;;;;;;2.27;0.60;;;;;;;34.43;38.20;100904.57;3536218;81;99088;-87
2022/07/12 09:39:45;;;;;;;0.82;0.68;;;;;;;34.34;37.46;100902.05;3541071;81;98905;-85
2022/07/12 09:44:47;;;;;;;1.37;0.33;;;;;;;34.08;36.87;100902.30;3554904;81;98088;-86
2022/07/12 09:49:48;;;;;;;0.75;0.55;;;;;;;33.66;36.50;100909.87;3554778;81;98784;-84
2022/07/12 09:54:54;;;;;;;1.60;0.60;;;;;;;33.02;36.87;100909.61;3572723;81;98052;-84
2022/07/12 09:59:57;;;;;;;1.30;0.60;;;;;;;32.44;36.89;100901.30;3551075;82;98251;-84
2022/07/12 10:05:04;;;;;;;1.65;0.72;;;;;;;32.21;37.86;100893.33;3561669;82;98330;-84
2022/07/12 10:10:05;;;;;;;2.52;0.72;;;;;;;32.40;38.11;100885.89;3617935;81;98907;-85
2022/07/12 10:15:19;;;;;;;1.10;0.68;;;;;;;32.50;37.74;100892.89;3615153;80;98782;-83
2022/07/12 10:20:23;;;;;;;2.15;0.60;;;;;;;32.71;37.72;100889.13;3614978;80;99193;-84
2022/07/12 10:25:34;;;;;;;1.65;0.50;;;;;;;33.18;37.38;100886.66;3472946;83;99130;-86
2022/07/12 10:30:50;;;;;;;2.00;0.68;;;;;;;33.45;36.77;100872.99;3585268;80;98698;-86
2022/07/12 10:36:07;;;;;;;1.07;0.45;;;;;;;33.70;36.59;100875.48;3589731;80;25846;-86
2022/07/12 10:41:20;;;;;;;2.98;0.68;;;;;;;34.16;36.28;100877.59;3588516;82;98568;-84
2022/07/12 10:46:25;;;;;;;1.92;0.60;;;;;;;34.70;35.30;100874.98;3584560;80;98758;-85
2022/07/12 10:51:26;;;;;;;3.85;1.07;;;;;;;34.47;34.47;100869.98;3606868;80;98811;-86
2022/07/12 10:56:27;;;;;;;1.37;0.63;;;;;;;34.14;34.29;100878.12;3594004;81;98853;-85
2022/07/12 11:01:31;;;;;;;2.00;0.72;;;;;;;34.00;34.59;100880.66;3595821;80;99163;-86
2022/07/12 11:06:37;;;;;;;;;;;;;;;34.00;34.76;100868.47;3585638;80;98897;-84
2022/07/12 11:11:44;;;;;;;1.60;0.60;;;;;;;34.26;34.65;100858.80;3595774;80;83968;-85
2022/07/12 11:16:47;;;;;;;1.37;0.57;;;;;;;33.92;33.93;100863.18;3597140;80;99023;-85
2022/07/12 11:21:55;;;;;;;0.93;0.60;;;;;;;33.34;34.28;100863.05;3599485;80;98831;-84
2022/07/12 11:26:52;;;;;;;4.70;0.65;;;;;;;33.44;34.12;100865.70;3574147;81;98836;-85
2022/07/12 11:32:03;;;;;;;2.05;0.70;;;;;;;33.57;34.41;100848.14;3577818;81;98959;-86
2022/07/12 11:37:04;;;;;;;0.78;0.57;;;;;;;33.58;33.97;100858.28;3583334;81;99135;-85
2022/07/12 11:42:07;;;;;;;5.10;0.72;;;;;;;33.24;33.86;100851.75;3594894;81;25836;-84
2022/07/12 11:47:09;;;;;;;1.17;0.57;;;;;;;32.84;34.10;100853.77;3586662;81;98465;-86
2022/07/12 11:52:24;;;;;;;2.17;0.65;;;;;;;32.92;34.31;100849.86;3601886;81;98616;-85
2022/07/12 11:57:25;;;;;;;1.67;0.75;;;;;;;32.85;33.92;100846.79;3582677;81;99216;-85
2022/07/12 12:02:29;;;;;;;3.30;0.60;;;;;;;32.69;33.56;100846.89;3597145;81;98804;-85
2022/07/12 12:07:30;;;;;;;1.00;0.40;;;;;;;32.70;33.75;100841.98;3600693;81;98972;-83
2022/07/12 12:12:48;;;;;;;0.65;0.45;;;;;;;32.81;33.11;100832.02;3581706;81;25955;-85
2022/07/12 12:17:59;;;;;;;2.72;0.55;;;;;;;32.86;33.40;100824.86;3603823;81;98724;-83
2022/07/12 12:23:06;;;;;;;1.82;0.50;;;;;;;32.85;33.69;100822.55;3592132;81;98673;-84
2022/07/12 12:28:07;;;;;;;1.52;0.75;;;;;;;32.56;33.77;100834.45;3586275;81;99067;-83
2022/07/12 12:33:08;;;;;;;4.53;0.85;;;;;;;32.29;33.41;100831.74;3581074;81;99139;-86
2022/07/12 12:38:15;;;;;;;1.17;0.50;;;;;;;32.50;33.78;100828.77;3579017;80;99042;-85
2022/07/12 12:43:21;;;;;;;1.62;0.47;;;;;;;32.13;33.23;100829.63;3591368;81;98949;-84
2022/07/12 12:48:25;;;;;;;1.62;0.53;;;;;;;31.64;33.61;100826.63;3597539;81;98615;-84
2022/07/12 12:53:26;;;;;;;1.40;0.37;;;;;;;31.79;33.51;100818.68;3600820;81;98717;-86
2022/07/12 12:58:28;;;;;;;1.67;0.37;;;;;;;31.38;32.72;100823.18;3590350;81;99080;-86
2022/07/12 13:03:31;;;;;;;1.07;0.50;;;;;;;31.37;32.98;100818.12;3593533;81;99234;-85
2022/07/12 13:08:32;;;;;;;1.82;0.70;;;;;;;31.30;33.22;100807.23;3589529;80;98820;-87
2022/07/12 13:13:34;;;;;;;1.37;0.50;;;;;;;31.71;33.18;100814.09;3578451;81;99523;-85
2022/07/12 13:18:35;;;;;;;1.10;0.47;;;;;;;31.83;32.82;100818.55;3429631;84;99008;-83
2022/07/12 13:23:36;;;;;;;2.90;0.60;;;;;;;31.84;32.94;100820.77;3480159;83;98802;-85
2022/07/12 13:28:37;;;;;;;3.47;0.60;;;;;;;31.84;32.48;100817.28;3502231;83;99072;-85
2022/07/12 13:33:39;;;;;;;1.55;0.55;;;;;;;31.92;32.27;100816.90;3532444;82;98924;-85
2022/07/12 13:38:40;;;;;;;1.37;0.53;;;;;;;31.79;32.45;100812.35;3517675;82;99041;-84
2022/07/12 13:43:42;;;;;;;5.30;0.70;;;;;;;31.88;32.53;100804.98;3537313;81;98797;-84
2022/07/12 13:48:44;;;;;;;1.65;0.40;;;;;;;32.04;32.33;100809.92;3512692;82;98927;-83
2022/07/12 13:53:45;;;;;;;2.17;0.55;;;;;;;32.01;31.40;100807.33;3524432;82;98834;-85
2022/07/12 13:58:46;;;;;;;3.15;0.60;;;;;;;32.11;31.57;100815.13;3526094;82;99013;-82
2022/07/12 14:03:47;;;;;;;1.85;0.50;;;;;;;32.13;31.77;100805.41;3504062;83;99201;-84
2022/07/12 14:08:48;;;;;;;2.60;0.62;;;;;;;31.99;31.45;100808.51;3456291;82;98999;-83
2022/07/12 14:13:49;;;;;;;0.65;0.35;;;;;;;31.91;31.27;100813.92;3487103;82;99013;-84
2022/07/12 14:18:50;;;;;;;1.32;0.40;;;;;;;31.84;30.97;100809.38;3492012;82;98914;-83
2022/07/12 14:23:51;;;;;;;1.67;0.30;;;;;;;31.58;31.30;100822.98;3498694;82;25916;-82
2022/07/12 14:28:53;;;;;;;2.58;0.50;;;;;;;31.31;31.30;100817.33;3549932;81;99071;-82
2022/07/12 14:33:54;;;;;;;2.17;0.42;;;;;;;31.20;31.60;100811.58;3642957;80;99309;-83
2022/07/12 14:38:55;;;;;;;1.57;0.50;;;;;;;30.91;31.15;100804.81;3558542;81;98914;-83
2022/07/12 14:43:56;;;;;;;1.47;0.40;;;;;;;30.44;31.33;100803.27;3535700;82;98853;-82
2022/07/12 14:48:57;;;;;;;2.83;0.60;;;;;;;30.03;31.70;100801.19;3571555;82;99330;-84
2022/07/12 14:53:58;;;;;;;0.95;0.40;;;;;;;29.85;32.17;100797.28;3578633;82;25848;-82
2022/07/12 14:58:59;;;;;;;1.42;0.47;;;;;;;29.61;32.73;100796.77;3572586;81;99034;-85
2022/07/12 15:04:00;;;;;;;1.77;0.33;;;;;;;29.51;32.68;100798.80;3568215;82;99299;-83
2022/07/12 15:09:01;;;;;;;1.40;0.68;;;;;;;29.22;32.84;100794.71;3544197;82;98807;-83
2022/07/12 15:14:03;;;;;;;2.05;0.45;;;;;;;29.02;33.01;100795.48;3565634;82;99185;-84
2022/07/12 15:19:04;;;;;;;0.60;0.50;;;;;;;28.99;33.25;100788.61;3539212;82;99171;-84
2022/07/12 15:24:05;;;;;;;1.50;0.30;;;;;;;28.88;33.48;100787.77;3503243;83;33017;-83
2022/07/12 15:29:06;;;;;;;1.80;0.50;;;;;;;28.72;33.30;100798.88;3505072;82;98816;-83
2022/07/12 15:34:08;;;;;;;2.00;0.60;;;;;;;28.38;33.37;100806.06;3525713;83;98745;-85
2022/07/12 15:39:09;;;;;;;15.68;9.33;;;;;;;28.10;33.86;100797.70;3508877;82;98940;-84
2022/07/12 15:44:10;;;;;;;2.77;0.90;;;;;;;27.87;34.13;100795.75;3517997;82;99039;-84
2022/07/12 15:49:13;;;;;;;2.20;0.60;;;;;;;27.67;34.74;100785.69;3514597;82;98817;-84
2022/07/12 15:54:14;;;;;;;3.25;0.85;;;;;;;27.47;35.15;100786.95;3538131;82;32965;-85
2022/07/12 15:59:16;;;;;;;2.50;0.50;;;;;;;27.21;34.80;100790.17;3508345;82;99256;-85
2022/07/12 16:04:17;;;;;;;3.22;0.50;;;;;;;27.00;34.83;100773.48;3521043;83;99040;-83
2022/07/12 16:09:18;;;;;;;3.47;0.80;;;;;;;26.78;34.88;100774.40;3507622;82;98921;-86
2022/07/12 16:14:19;;;;;;;2.85;0.62;;;;;;;26.51;35.05;100782.36;3499577;82;98850;-85
2022/07/12 16:19:21;;;;;;;4.17;0.80;;;;;;;26.27;35.22;100773.03;3519126;82;99157;-85
2022/07/12 16:24:22;;;;;;;5.03;0.82;;;;;;;26.06;35.75;100767.62;3533522;82;33049;-85
2022/07/12 16:29:24;;;;;;;1.72;0.65;;;;;;;25.85;35.18;100764.36;3508633;82;98963;-83
2022/07/12 16:34:25;;;;;;;1.00;0.70;;;;;;;25.60;35.92;100766.89;3528578;82;98773;-84
2022/07/12 16:39:26;;;;;;;2.27;0.80;;;;;;;25.43;36.69;100769.09;3506477;82;98885;-85
2022/07/12 16:44:36;;;;;;;4.65;1.52;;;;;;;25.23;36.61;100766.70;3522170;82;98854;-85
2022/07/12 16:49:37;;;;;;;2.92;0.60;;;;;;;25.03;36.72;100769.21;3501980;82;99377;-84
2022/07/12 16:54:38;;;;;;;3.10;0.80;;;;;;;24.76;36.89;100769.77;3537132;82;32961;-85
2022/07/12 16:59:39;;;;;;;2.72;0.80;;;;;;;24.60;37.29;100768.02;3526486;82;98870;-86
2022/07/12 17:04:41;;;;;;;1.27;0.50;;;;;;;24.43;37.46;100770.90;3534033;83;98629;-85
2022/07/12 17:09:42;;;;;;;1.60;0.80;;;;;;;24.27;37.60;100771.14;3519905;82;98410;-83
2022/07/12 17:14:43;;;;;;;0.93;0.40;;;;;;;24.11;37.87;100766.36;3534470;82;98919;-86
2022/07/12 17:19:44;;;;;;;1.17;0.45;;;;;;;23.96;38.12;100765.33;3513685;83;99344;-85
2022/07/12 17:24:49;;;;;;;1.15;0.60;;;;;;;23.80;38.24;100761.29;3536319;82;33060;-85
2022/07/12 17:29:48;;;;;;;1.98;0.68;;;;;;;23.68;38.66;100750.91;3557882;82;98656;-85
2022/07/12 17:34:49;;;;;;;1.72;0.75;;;;;;;23.48;39.04;100746.27;3507881;83;99154;-85
2022/07/12 17:39:50;;;;;;;2.83;0.45;;;;;;;23.34;39.62;100732.72;3547536;81;98860;-85
2022/07/12 17:44:51;;;;;;;2.20;0.78;;;;;;;23.29;40.08;100747.34;3567330;81;98802;-84
2022/07/12 17:49:52;;;;;;;2.25;0.80;;;;;;;23.20;40.38;100745.25;3552277;81;99192;-84
2022/07/12 17:54:53;;;;;;;2.75;0.80;;;;;;;23.11;40.75;100747.93;3557884;81;98798;-85
2022/07/12 17:59:54;;;;;;;2.37;0.80;;;;;;;23.02;41.14;100737.25;3559852;81;98676;-84
2022/07/12 18:04:55;;;;;;;2.00;0.80;;;;;;;22.95;41.44;100744.52;3573579;81;98781;-84
2022/07/12 18:09:56;;;;;;;3.47;0.70;;;;;;;22.86;41.86;100741.61;3571551;81;98921;-84
2022/07/12 18:14:57;;;;;;;5.90;1.70;;;;;;;22.76;42.24;100742.14;3554372;82;98818;-85
2022/07/12 18:19:59;;;;;;;1.70;0.62;;;;;;;22.66;42.58;100743.28;3570944;81;98824;-84
2022/07/12 18:25:00;;;;;;;1.60;0.53;;;;;;;22.57;43.06;100739.59;3573548;81;101750;-85
2022/07/12 18:30:01;;;;;;;4.50;0.93;;;;;;;22.47;43.62;100738.72;3575891;82;98994;-84
2022/07/12 18:35:03;;;;;;;3.67;0.88;;;;;;;22.39;44.07;100737.33;3564115;82;99379;-85
2022/07/12 18:40:05;;;;;;;2.00;0.77;;;;;;;22.28;44.40;100741.09;3553962;82;98789;-84
2022/07/12 18:45:08;;;;;;;1.52;0.93;;;;;;;22.17;44.93;100740.64;3564082;82;99222;-84
2022/07/12 18:50:09;;;;;;;4.10;1.10;;;;;;;22.10;45.31;100742.27;3567985;81;98766;-84
2022/07/12 18:55:10;;;;;;;2.08;0.70;;;;;;;21.98;45.79;100753.47;3554319;82;99194;-84
2022/07/12 19:00:12;;;;;;;2.23;1.00;;;;;;;21.84;46.26;100749.07;3563356;81;98419;-83
2022/07/12 19:05:13;;;;;;;3.20;1.90;;;;;;;21.74;46.77;100764.17;3572527;82;98757;-84
2022/07/12 19:10:14;;;;;;;1.20;0.73;;;;;;;21.63;47.33;100765.06;3566080;82;98879;-84
2022/07/12 19:15:15;;;;;;;3.17;1.17;;;;;;;21.51;47.92;100767.22;3570567;82;98894;-85
2022/07/12 19:20:16;;;;;;;1.57;0.67;;;;;;;21.41;48.46;100775.94;3523754;82;98861;-84
2022/07/12 19:25:17;;;;;;;1.57;0.83;;;;;;;21.30;48.98;100779.64;3526371;82;98964;-84
2022/07/12 19:30:18;;;;;;;5.77;1.07;;;;;;;21.18;50.06;100774.14;3564512;81;98758;-85
2022/07/12 19:35:20;;;;;;;3.37;1.40;;;;;;;21.06;50.82;100778.27;3526370;83;99258;-84
2022/07/12 19:40:21;;;;;;;4.47;1.50;;;;;;;20.93;51.41;100783.02;3578376;81;98834;-87
2022/07/12 19:45:23;;;;;;;3.73;1.50;;;;;;;20.74;51.74;100785.25;3547928;81;98747;-85
2022/07/12 19:50:24;;;;;;;2.13;1.10;;;;;;;20.53;51.83;100793.55;3554839;82;98859;-84
2022/07/12 19:55:27;;;;;;;3.33;0.80;;;;;;;20.38;51.97;100799.91;3636206;80;98950;-84
2022/07/12 20:00:28;;;;;;;4.03;1.20;;;;;;;20.26;51.61;100800.56;3637363;80;98739;-85
2022/07/12 20:05:29;;;;;;;2.27;1.10;;;;;;;20.14;51.62;100809.03;3639227;80;98690;-85
2022/07/12 20:10:30;;;;;;;3.87;1.00;;;;;;;20.03;51.94;100813.23;3643967;80;98742;-84
2022/07/12 20:15:34;;;;;;;2.90;1.10;;;;;;;19.92;52.35;100810.67;3610619;80;98853;-84
2022/07/12 20:20:38;;;;;;;3.10;1.50;;;;;;;19.81;52.09;100813.49;3580265;81;99249;-84
2022/07/12 20:25:39;;;;;;;4.95;1.70;;;;;;;19.68;52.44;100825.14;3613097;80;99238;-84
2022/07/12 20:30:40;;;;;;;6.37;1.67;;;;;;;19.55;53.06;100824.17;3465622;83;98696;-83
2022/07/12 20:35:41;;;;;;;1.30;0.70;;;;;;;19.51;53.60;100822.08;3522358;82;98591;-83
2022/07/12 20:40:43;;;;;;;2.00;0.80;;;;;;;19.43;54.00;100820.03;3484798;81;98732;-84
2022/07/12 20:45:43;;;;;;;1.37;0.73;;;;;;;19.34;53.88;100823.98;3485606;83;99044;-84
2022/07/12 20:50:44;;;;;;;2.23;0.90;;;;;;;19.25;54.36;100831.33;3504957;82;98862;-84
2022/07/12 20:55:45;;;;;;;2.43;0.90;;;;;;;19.08;54.91;100822.64;3507000;82;99237;-83
2022/07/12 21:00:46;;;;;;;4.17;0.90;;;;;;;19.07;55.79;100830.20;3520829;82;99219;-84
2022/07/12 21:05:48;;;;;;;3.10;0.90;;;;;;;19.01;56.48;100826.95;3498617;82;29799;-84
2022/07/12 21:10:50;;;;;;;2.30;1.00;;;;;;;18.98;57.55;100823.61;3462290;84;98864;-84
2022/07/12 21:15:52;;;;;;;2.50;0.80;;;;;;;18.97;58.33;100824.82;3496838;83;98869;-84
2022/07/12 21:20:53;;;;;;;3.27;1.30;;;;;;;18.93;58.70;100825.48;3431569;84;98829;-84
2022/07/12 21:25:55;;;;;;;2.10;1.10;;;;;;;18.86;59.26;100820.80;3510041;83;98949;-84
2022/07/12 21:30:56;;;;;;;3.77;1.00;;;;;;;18.81;60.13;100820.50;3401359;85;99295;-84
2022/07/12 21:35:57;;;;;;;3.20;1.40;;;;;;;18.74;60.36;100828.37;3466857;84;27243;-84
2022/07/12 21:40:58;;;;;;;3.43;1.40;;;;;;;18.68;61.03;100830.66;3401444;85;98724;-84
2022/07/12 21:45:59;;;;;;;2.53;1.20;;;;;;;18.63;61.33;100825.58;3462507;83;98677;-84
2022/07/12 21:51:00;;;;;;;3.87;1.67;;;;;;;18.56;61.89;100827.86;3435155;85;99310;-83
2022/07/12 21:56:02;;;;;;;4.30;1.23;;;;;;;18.50;62.49;100823.17;3494973;84;99119;-84
2022/07/12 22:01:03;;;;;;;3.20;1.40;;;;;;;18.43;62.74;100829.63;3498637;83;98842;-84
2022/07/12 22:06:05;;;;;;;2.83;1.03;;;;;;;18.37;63.20;100830.55;3508046;83;26271;-84
2022/07/12 22:11:06;;;;;;;2.77;1.17;;;;;;;18.28;63.45;100828.84;3416116;84;98661;-84
2022/07/12 22:16:08;;;;;;;2.43;1.20;;;;;;;18.20;63.48;100823.19;3499911;83;99193;-84
2022/07/12 22:21:09;;;;;;;1.63;1.00;;;;;;;18.14;64.12;100823.48;3517246;83;98892;-84
2022/07/12 22:26:10;;;;;;;5.27;1.70;;;;;;;18.07;64.45;100812.41;3528910;81;99280;-83
2022/07/12 22:31:11;;;;;;;4.40;1.40;;;;;;;17.99;64.76;100823.47;3554284;81;99080;-84
2022/07/12 22:36:12;;;;;;;3.50;1.43;;;;;;;17.92;65.02;100818.77;3565587;81;31610;-84
2022/07/12 22:41:13;;;;;;;4.37;1.67;;;;;;;17.87;65.76;100817.06;3564245;82;98729;-84
2022/07/12 22:46:14;;;;;;;2.60;1.47;;;;;;;17.80;65.94;100806.79;3555543;81;98713;-84
2022/07/12 22:56:34;;;;;;;3.83;1.50;;;;;;;17.68;66.96;100810.13;3543161;82;98923;-85
2022/07/12 23:01:36;;;;;;;4.42;1.60;;;;;;;17.61;66.89;100807.40;3555427;81;99143;-84
2022/07/12 23:06:37;;;;;;;4.45;1.60;;;;;;;17.53;67.74;100805.91;3548139;81;98735;-84
2022/07/12 23:11:39;;;;;;;3.53;1.50;;;;;;;17.50;68.16;100804.56;3565930;81;98523;-84
2022/07/12 23:16:40;;;;;;;2.83;1.17;;;;;;;17.43;68.17;100813.00;3549043;81;99058;-85
2022/07/12 23:21:44;;;;;;;3.85;1.52;;;;;;;17.34;68.73;100809.87;3622604;80;99194;-84
2022/07/12 23:26:45;;;;;;;4.78;2.00;;;;;;;17.29;69.47;100807.54;3608989;80;98462;-84
2022/07/12 23:31:46;;;;;;;2.77;1.60;;;;;;;17.25;69.76;100802.61;3597897;80;98817;-84
2022/07/12 23:36:47;;;;;;;4.08;1.75;;;;;;;17.19;69.89;100807.84;3622459;78;99045;-84
2022/07/12 23:41:48;;;;;;;4.87;2.00;;;;;;;17.14;70.56;100799.14;3562915;81;28923;-83